Time;durP1;ratioP1;P1;durP2;ratioP2;P2;SDS_P1;SDS_P2;PMS_P1;PMS_P2;Temp;Humidity;BMP_temperature;BMP_pressure;BME280_temperature;BME280_humidity;BME280_pressure;Samples;Min_cycle;Max_cycle;Signal;HPM_P1;HPM_P2
2023/05/17 00:00:15;;;;;;;12.55;3.72;;;;;;;7.98;88.06;102305.81;5072979;28;20120;-70
2023/05/17 00:03:01;;;;;;;8.70;3.30;;;;;;;7.93;88.40;102301.44;5081994;28;20182;-70
2023/05/17 00:05:46;;;;;;;10.90;3.72;;;;;;;7.87;88.34;102295.28;5081452;28;20064;-70
2023/05/17 00:08:32;;;;;;;9.63;3.78;;;;;;;7.83;88.41;102298.75;5061613;28;20079;-70
2023/05/17 00:11:17;;;;;;;9.32;3.67;;;;;;;7.77;88.38;102297.88;5059902;28;20041;-70
2023/05/17 00:14:02;;;;;;;12.70;4.47;;;;;;;7.73;88.38;102303.97;5066710;28;20052;-70
2023/05/17 00:16:48;;;;;;;15.52;4.43;;;;;;;7.70;88.75;102303.94;5086176;28;20075;-70
2023/05/17 00:19:33;;;;;;;10.18;4.35;;;;;;;7.68;88.73;102312.69;5074185;28;20479;-69
2023/05/17 00:22:19;;;;;;;11.30;4.20;;;;;;;7.64;89.17;102317.06;5066983;28;20048;-70
2023/05/17 00:25:04;;;;;;;11.75;4.55;;;;;;;7.60;88.99;102318.78;5071738;28;20052;-70
2023/05/17 00:27:50;;;;;;;11.73;4.50;;;;;;;7.58;89.07;102319.66;5087013;28;20103;-70
2023/05/17 00:30:35;;;;;;;16.35;4.50;;;;;;;7.55;88.83;102319.63;5068353;28;20249;-70
2023/05/17 00:33:21;;;;;;;8.00;3.97;;;;;;;7.52;88.67;102322.22;5069867;28;20037;-70
2023/05/17 00:36:06;;;;;;;11.00;4.55;;;;;;;7.48;88.63;102316.09;5076985;28;20128;-70
2023/05/17 00:38:52;;;;;;;12.57;4.32;;;;;;;7.45;88.13;102314.31;5085908;28;20133;-70
2023/05/17 00:41:37;;;;;;;11.25;5.10;;;;;;;7.41;88.26;102315.16;5082808;28;20346;-70
2023/05/17 00:44:22;;;;;;;16.75;4.93;;;;;;;7.40;88.30;102315.16;5067019;28;20052;-71
2023/05/17 00:47:07;;;;;;;12.68;4.72;;;;;;;7.36;88.46;102313.38;5072534;28;20083;-71
2023/05/17 00:49:53;;;;;;;10.80;4.78;;;;;;;7.33;88.34;102315.97;5067984;28;20040;-71
2023/05/17 00:52:39;;;;;;;16.27;5.07;;;;;;;7.29;88.54;102315.97;5079147;28;20611;-71
2023/05/17 00:55:25;;;;;;;13.95;5.28;;;;;;;7.28;89.44;102311.59;5072934;28;20041;-70
2023/05/17 00:58:12;;;;;;;12.30;5.35;;;;;;;7.28;89.96;102314.22;5085794;28;20045;-70
2023/05/17 01:00:58;;;;;;;16.20;5.60;;;;;;;7.27;90.69;102309.81;5083689;28;20041;-70
2023/05/17 01:03:44;;;;;;;16.58;6.10;;;;;;;7.27;91.12;102304.56;5079104;28;20052;-70
2023/05/17 01:06:30;;;;;;;19.90;7.13;;;;;;;7.27;91.80;102309.81;5068450;28;20064;-70
2023/05/17 01:09:16;;;;;;;12.60;5.57;;;;;;;7.24;92.45;102301.91;5061467;28;20613;-70
2023/05/17 01:12:28;;;;;;;16.17;6.40;;;;;;;7.23;91.81;102317.66;5084174;28;20049;-71
2023/05/17 01:15:22;;;;;;;12.52;6.80;;;;;;;7.20;91.74;102312.38;5086429;28;20057;-71
2023/05/17 01:18:26;;;;;;;13.38;6.63;;;;;;;7.20;92.12;102320.25;5081901;28;20040;-72
2023/05/17 01:21:54;;;;;;;18.48;7.18;;;;;;;7.19;92.70;102315.88;5053569;28;20549;-71
2023/05/17 01:24:59;;;;;;;17.65;6.57;;;;;;;7.12;92.49;102305.34;5067840;28;20449;-72
2023/05/17 01:27:49;;;;;;;21.50;7.25;;;;;;;7.11;93.12;102311.44;5073051;28;20508;-71
2023/05/17 01:30:36;;;;;;;15.98;7.25;;;;;;;7.07;93.21;102303.56;5085610;28;20048;-71
2023/05/17 01:33:23;;;;;;;20.33;7.97;;;;;;;7.02;92.67;102303.50;5084020;28;20124;-71
2023/05/17 01:36:08;;;;;;;15.90;7.18;;;;;;;6.97;92.61;102303.47;5067325;28;20499;-72
2023/05/17 01:38:54;;;;;;;16.88;7.65;;;;;;;6.95;93.12;102305.19;5079513;28;20056;-71
2023/05/17 01:41:41;;;;;;;18.08;7.95;;;;;;;6.94;93.41;102306.06;5069887;28;20139;-71
2023/05/17 01:44:49;;;;;;;19.88;8.20;;;;;;;6.93;94.20;102308.69;5066200;28;20787;-72
2023/05/17 01:48:11;;;;;;;18.23;7.75;;;;;;;6.92;94.73;102306.94;5072469;28;20049;-72
2023/05/17 01:50:59;;;;;;;17.95;7.78;;;;;;;6.89;94.94;102302.53;5073197;28;20040;-73
2023/05/17 01:53:54;;;;;;;17.80;8.27;;;;;;;6.87;94.94;102300.78;5087828;28;20592;-72
2023/05/17 01:56:46;;;;;;;22.90;8.70;;;;;;;6.86;95.28;102306.88;5068841;28;20508;-72
2023/05/17 01:59:36;;;;;;;24.95;8.55;;;;;;;6.86;95.89;102306.88;5082697;28;20049;-72
2023/05/17 02:02:22;;;;;;;18.77;8.63;;;;;;;6.84;95.70;102299.00;5070369;28;20049;-71
2023/05/17 02:05:08;;;;;;;23.58;9.27;;;;;;;6.86;96.14;102306.88;5067905;28;20068;-71
2023/05/17 02:07:57;;;;;;;20.42;8.52;;;;;;;6.84;96.22;102299.88;5080747;28;20056;-70
2023/05/17 02:10:42;;;;;;;18.33;8.48;;;;;;;6.84;96.65;102305.13;5081674;28;20044;-70
2023/05/17 02:13:27;;;;;;;20.92;8.57;;;;;;;6.83;96.80;102300.75;5071052;28;20095;-70
2023/05/17 02:16:12;;;;;;;19.35;8.98;;;;;;;6.84;97.19;102304.22;5078061;28;20733;-70
2023/05/17 02:18:58;;;;;;;19.35;8.45;;;;;;;6.85;97.68;102303.38;5081417;28;20052;-70
2023/05/17 02:21:43;;;;;;;22.70;8.73;;;;;;;6.82;97.60;102305.97;5070385;28;20720;-71
2023/05/17 02:24:28;;;;;;;21.27;9.40;;;;;;;6.82;98.13;102304.22;5081425;28;20036;-71
2023/05/17 02:27:13;;;;;;;20.55;9.02;;;;;;;6.82;98.37;102309.47;5076142;28;20040;-70
2023/05/17 02:30:00;;;;;;;22.70;10.02;;;;;;;6.82;98.27;102313.81;5082556;28;20769;-71
2023/05/17 02:32:47;;;;;;;21.13;9.00;;;;;;;6.82;98.77;102309.47;5058644;28;20056;-71
2023/05/17 02:35:32;;;;;;;24.75;8.82;;;;;;;6.81;98.49;102312.09;5079279;28;20087;-71
2023/05/17 02:38:18;;;;;;;19.63;8.82;;;;;;;6.82;98.22;102316.44;5053600;28;20049;-70
2023/05/17 02:41:03;;;;;;;23.13;9.05;;;;;;;6.91;98.56;102321.78;5060568;28;20166;-71
2023/05/17 02:43:49;;;;;;;26.35;9.68;;;;;;;6.97;98.66;102329.69;5050349;28;20052;-71
2023/05/17 02:46:35;;;;;;;19.10;8.20;;;;;;;7.05;98.69;102319.28;5093467;28;20630;-71
2023/05/17 02:49:22;;;;;;;18.20;8.60;;;;;;;7.14;98.48;102321.09;5082690;28;20613;-72
2023/05/17 02:52:08;;;;;;;19.50;9.00;;;;;;;7.21;98.50;102322.91;5080403;28;20056;-71
2023/05/17 02:54:53;;;;;;;21.80;9.40;;;;;;;7.28;98.25;102331.66;5078788;28;20044;-72
2023/05/17 02:57:39;;;;;;;21.83;8.60;;;;;;;7.35;98.38;102329.97;5072866;28;20064;-71
2023/05/17 03:00:27;;;;;;;17.90;8.35;;;;;;;7.39;98.50;102340.50;5061772;28;20809;-71
2023/05/17 03:03:12;;;;;;;23.65;9.07;;;;;;;7.40;98.06;102337.00;5060668;28;20650;-71
2023/05/17 03:06:03;;;;;;;21.73;8.52;;;;;;;7.43;98.25;102339.66;5081990;28;20064;-71
2023/05/17 03:08:49;;;;;;;24.50;8.73;;;;;;;7.48;98.22;102342.31;5064824;28;20041;-71
2023/05/17 03:11:35;;;;;;;20.52;8.85;;;;;;;7.54;97.93;102351.97;5080257;28;20096;-71
2023/05/17 03:14:24;;;;;;;19.98;8.48;;;;;;;7.54;97.57;102339.72;5063922;28;20045;-71
2023/05/17 03:17:10;;;;;;;17.92;8.65;;;;;;;7.60;97.53;102349.38;5067322;28;20044;-71
2023/05/17 03:19:57;;;;;;;20.30;8.48;;;;;;;7.63;97.51;102351.19;5072424;28;20048;-71
2023/05/17 03:22:43;;;;;;;23.25;8.55;;;;;;;7.68;97.29;102355.56;5053442;28;20045;-71
2023/05/17 03:25:29;;;;;;;21.02;8.65;;;;;;;7.72;97.20;102354.72;5073472;28;20127;-71
2023/05/17 03:28:14;;;;;;;21.88;8.85;;;;;;;7.75;97.40;102356.47;5053798;28;20044;-71
2023/05/17 03:31:01;;;;;;;26.15;8.20;;;;;;;7.78;97.06;102353.88;5067840;28;20048;-72
2023/05/17 03:33:49;;;;;;;25.52;8.98;;;;;;;7.82;97.24;102360.00;5070314;28;20139;-71
2023/05/17 03:36:38;;;;;;;26.23;8.65;;;;;;;7.84;97.21;102363.53;5079295;28;20048;-70
2023/05/17 03:39:24;;;;;;;23.30;8.65;;;;;;;7.87;97.13;102372.31;5068709;28;20051;-71
2023/05/17 03:42:09;;;;;;;18.42;8.60;;;;;;;7.91;97.21;102374.09;5085733;28;20044;-70
2023/05/17 03:44:54;;;;;;;25.20;8.43;;;;;;;7.98;97.13;102371.47;5070955;28;20515;-71
2023/05/17 03:47:41;;;;;;;23.23;9.05;;;;;;;8.01;97.24;102375.00;5071117;28;20059;-71
2023/05/17 03:50:30;;;;;;;23.40;8.70;;;;;;;8.03;97.06;102372.41;5081874;28;20045;-71
2023/05/17 03:53:15;;;;;;;25.00;8.52;;;;;;;8.04;96.80;102380.28;5072296;28;20044;-71
2023/05/17 03:56:00;;;;;;;21.73;8.57;;;;;;;8.06;96.48;102378.53;5046776;28;20061;-71
2023/05/17 03:58:46;;;;;;;21.23;8.13;;;;;;;8.11;96.58;102375.03;5080788;28;20091;-71
2023/05/17 04:01:32;;;;;;;21.73;8.35;;;;;;;8.15;96.79;102376.81;5067070;28;20068;-70
2023/05/17 04:04:18;;;;;;;26.65;8.55;;;;;;;8.21;96.58;102388.25;5057492;28;20528;-70
2023/05/17 04:07:04;;;;;;;39.85;8.63;;;;;;;8.28;96.80;102389.16;5069166;28;20048;-70
2023/05/17 04:09:49;;;;;;;29.42;9.30;;;;;;;8.36;96.86;102390.03;5084788;28;20044;-71
2023/05/17 04:12:35;;;;;;;21.00;8.85;;;;;;;8.45;97.00;102397.06;5084773;28;20045;-70
2023/05/17 04:15:20;;;;;;;18.30;7.65;;;;;;;8.61;96.46;102413.81;5061131;28;20904;-70
2023/05/17 04:18:07;;;;;;;23.52;9.07;;;;;;;8.53;95.87;102411.16;5066818;28;20048;-71
2023/05/17 04:20:54;;;;;;;21.77;8.05;;;;;;;8.55;96.02;102409.41;5069022;28;20045;-71
2023/05/17 04:23:41;;;;;;;26.23;8.75;;;;;;;8.62;96.26;102410.31;5074555;28;20508;-70
2023/05/17 04:26:28;;;;;;;24.33;8.35;;;;;;;8.71;95.98;102404.22;5055473;28;20921;-71
2023/05/17 04:29:13;;;;;;;20.55;7.95;;;;;;;8.83;95.58;102419.13;5070069;28;20092;-71
2023/05/17 04:31:58;;;;;;;29.08;8.32;;;;;;;8.89;95.08;102419.16;5076720;28;20143;-71
2023/05/17 04:34:44;;;;;;;40.53;9.77;;;;;;;8.90;94.84;102425.28;5069772;28;20052;-70
2023/05/17 04:37:30;;;;;;;27.98;8.63;;;;;;;8.98;94.43;102424.44;5074321;28;20140;-70
2023/05/17 04:40:20;;;;;;;33.13;8.85;;;;;;;9.11;94.31;102427.94;5082059;28;20047;-71
2023/05/17 04:43:08;;;;;;;24.95;8.10;;;;;;;9.18;94.30;102423.56;5066046;28;20049;-70
2023/05/17 04:45:58;;;;;;;29.27;7.80;;;;;;;9.32;93.68;102440.22;5067218;28;20037;-70
2023/05/17 04:48:44;;;;;;;25.42;7.93;;;;;;;9.69;92.52;102435.84;5067869;28;20048;-71
2023/05/17 04:51:30;;;;;;;22.63;7.55;;;;;;;9.70;92.13;102433.19;5084826;28;20061;-70
2023/05/17 04:54:15;;;;;;;23.20;7.55;;;;;;;9.75;91.85;102446.38;5072227;28;20123;-71
2023/05/17 04:57:02;;;;;;;26.10;7.75;;;;;;;9.96;91.23;102453.38;5065996;28;20087;-71
2023/05/17 05:00:14;;;;;;;19.50;7.45;;;;;;;10.16;90.67;102449.81;5069392;28;20439;-71
2023/05/17 05:03:03;;;;;;;24.48;8.10;;;;;;;10.59;89.50;102444.38;5092140;28;20056;-71
2023/05/17 05:05:50;;;;;;;20.95;7.63;;;;;;;10.71;88.81;102446.97;5081072;28;20055;-72
2023/05/17 05:08:37;;;;;;;26.73;8.02;;;;;;;10.60;88.41;102450.56;5089949;28;20229;-72
2023/05/17 05:11:26;;;;;;;18.15;7.40;;;;;;;10.56;88.16;102455.84;5068708;28;20049;-73
2023/05/17 05:14:11;;;;;;;19.95;6.97;;;;;;;10.82;87.08;102460.13;5071231;28;20080;-73
2023/05/17 05:16:58;;;;;;;19.50;6.50;;;;;;;11.76;84.26;102455.00;5079024;28;20052;-73
2023/05/17 05:19:43;;;;;;;41.65;7.55;;;;;;;12.29;82.40;102459.78;5087213;28;20037;-73
2023/05/17 05:22:29;;;;;;;22.30;6.72;;;;;;;12.38;81.45;102467.63;5086370;28;20042;-72
2023/05/17 05:25:14;;;;;;;22.27;6.43;;;;;;;12.73;80.31;102461.88;5088450;28;20092;-73
2023/05/17 05:28:00;;;;;;;60.47;9.07;;;;;;;13.30;78.13;102468.09;5083902;28;20076;-72
2023/05/17 05:30:47;;;;;;;19.08;5.38;;;;;;;15.51;72.20;102468.09;5085149;28;20833;-73
2023/05/17 05:33:33;;;;;;;20.77;5.20;;;;;;;17.51;65.82;102472.09;5070601;28;20048;-73
2023/05/17 05:36:19;;;;;;;43.58;6.70;;;;;;;18.97;59.29;102467.72;5073067;28;20083;-74
2023/05/17 05:39:05;;;;;;;17.05;4.70;;;;;;;20.03;55.70;102466.88;5068886;28;20517;-74
2023/05/17 05:41:54;;;;;;;21.95;5.25;;;;;;;20.95;52.24;102471.56;5083888;28;20048;-74
2023/05/17 05:44:39;;;;;;;17.48;4.10;;;;;;;20.12;52.42;102469.13;5084015;28;20040;-74
2023/05/17 05:47:26;;;;;;;15.43;3.78;;;;;;;19.97;51.58;102476.03;5077279;28;20924;-74
2023/05/17 05:50:12;;;;;;;20.10;5.45;;;;;;;20.50;50.58;102478.16;5073229;28;20056;-74
2023/05/17 05:53:00;;;;;;;20.73;3.25;;;;;;;19.88;49.50;102472.91;5057411;28;20901;-73
2023/05/17 05:56:06;;;;;;;17.20;3.97;;;;;;;20.14;48.34;102479.78;5067110;28;20083;-73
2023/05/17 05:58:53;;;;;;;19.90;3.25;;;;;;;18.16;51.43;102480.56;5073608;28;20040;-73
2023/05/17 06:01:40;;;;;;;18.80;3.80;;;;;;;16.52;54.62;102496.47;5075851;28;20562;-73
2023/05/17 06:04:25;;;;;;;15.70;3.92;;;;;;;15.46;57.65;102503.69;5089416;28;20052;-73
2023/05/17 06:07:25;;;;;;;14.15;3.78;;;;;;;14.44;60.23;102509.41;5084100;28;20056;-74
2023/05/17 06:10:10;;;;;;;18.92;3.92;;;;;;;13.82;62.16;102513.19;5077721;28;20052;-71
2023/05/17 06:12:57;;;;;;;25.90;4.43;;;;;;;13.41;63.67;102518.31;5073449;28;20534;-70
2023/05/17 06:15:42;;;;;;;19.58;3.70;;;;;;;13.16;64.48;102515.97;5084641;28;20044;-70
2023/05/17 06:18:27;;;;;;;14.82;2.92;;;;;;;13.30;64.89;102522.84;5087493;28;20449;-70
2023/05/17 06:21:14;;;;;;;16.55;3.70;;;;;;;13.20;65.85;102515.03;5088612;28;20040;-70
2023/05/17 06:23:59;;;;;;;20.92;4.38;;;;;;;13.13;66.40;102531.03;5069802;28;20056;-69
2023/05/17 06:26:48;;;;;;;24.05;3.95;;;;;;;12.86;67.71;102535.81;5075840;28;20040;-70
2023/05/17 06:29:33;;;;;;;15.80;3.67;;;;;;;12.67;66.68;102538.66;5090602;28;20718;-70
2023/05/17 06:32:19;;;;;;;20.30;3.90;;;;;;;12.44;67.27;102541.59;5097591;28;20055;-69
2023/05/17 06:35:05;;;;;;;22.83;4.70;;;;;;;12.26;68.39;102548.81;5062270;28;20126;-70
2023/05/17 06:37:51;;;;;;;16.75;3.65;;;;;;;12.27;68.84;102544.41;5085705;28;20087;-70
2023/05/17 06:40:36;;;;;;;16.70;3.60;;;;;;;12.33;68.48;102543.47;5103791;28;20181;-70
2023/05/17 06:43:21;;;;;;;15.40;2.95;;;;;;;12.38;68.57;102542.53;5080589;28;20680;-70
2023/05/17 06:46:07;;;;;;;17.10;2.72;;;;;;;12.25;68.02;102547.06;5101552;28;20051;-70
2023/05/17 06:48:52;;;;;;;21.30;3.53;;;;;;;12.15;68.32;102545.41;5075588;28;20754;-70
2023/05/17 06:51:38;;;;;;;34.55;5.30;;;;;;;12.24;68.25;102555.91;5069395;28;20052;-70
2023/05/17 06:54:23;;;;;;;9.75;2.72;;;;;;;12.36;68.08;102544.31;5077659;28;20091;-70
2023/05/17 06:57:09;;;;;;;43.38;4.72;;;;;;;12.57;68.28;102553.78;5082460;28;20044;-70
2023/05/17 06:59:54;;;;;;;21.30;3.63;;;;;;;12.94;67.48;102552.47;5066346;28;20130;-70
2023/05/17 07:02:39;;;;;;;13.57;3.10;;;;;;;13.09;65.08;102546.09;5085706;28;20636;-70
2023/05/17 07:05:27;;;;;;;27.25;3.67;;;;;;;12.89;65.14;102543.69;5084676;28;20037;-70
2023/05/17 07:08:14;;;;;;;11.60;2.63;;;;;;;12.99;65.06;102553.28;5083331;28;20578;-71
2023/05/17 07:11:00;;;;;;;13.93;2.75;;;;;;;13.15;64.03;102553.06;5082377;28;20049;-70
2023/05/17 07:13:45;;;;;;;12.70;2.65;;;;;;;13.11;61.70;102549.59;5069980;28;20698;-70
2023/05/17 07:16:31;;;;;;;15.63;2.90;;;;;;;12.76;62.56;102548.28;5080695;28;20056;-70
2023/05/17 07:19:16;;;;;;;10.32;2.70;;;;;;;12.56;64.03;102553.81;5084988;28;20048;-70
2023/05/17 07:22:01;;;;;;;11.52;2.80;;;;;;;12.39;64.21;102556.66;5082642;28;20052;-70
2023/05/17 07:24:47;;;;;;;14.57;2.80;;;;;;;12.17;65.06;102559.50;5086653;28;20100;-70
2023/05/17 07:27:34;;;;;;;16.55;2.60;;;;;;;12.12;65.68;102550.72;5085914;28;20044;-70
2023/05/17 07:30:20;;;;;;;16.83;3.15;;;;;;;12.67;64.77;102558.97;5084914;28;20905;-70
2023/05/17 07:33:05;;;;;;;14.43;2.85;;;;;;;12.89;63.49;102559.56;5071218;28;20083;-70
2023/05/17 07:35:50;;;;;;;23.17;3.17;;;;;;;12.88;63.38;102569.31;5087293;28;20131;-70
2023/05/17 07:38:36;;;;;;;29.83;4.18;;;;;;;13.10;64.15;102573.44;5085568;28;20048;-70
2023/05/17 07:41:22;;;;;;;16.65;3.20;;;;;;;13.54;63.68;102576.38;5086613;28;20463;-70
2023/05/17 07:44:07;;;;;;;12.00;2.85;;;;;;;13.96;62.66;102572.19;5086070;28;20048;-71
2023/05/17 07:46:52;;;;;;;13.35;3.05;;;;;;;14.41;59.80;102570.50;5085866;28;20110;-70
2023/05/17 07:49:38;;;;;;;12.70;3.30;;;;;;;14.65;59.36;102573.56;5087694;28;20614;-70
2023/05/17 07:52:24;;;;;;;13.73;2.90;;;;;;;14.97;58.08;102577.38;5082268;28;20041;-70
2023/05/17 07:55:09;;;;;;;18.15;3.55;;;;;;;14.91;57.99;102579.25;5082136;28;20544;-70
2023/05/17 07:57:55;;;;;;;23.13;3.72;;;;;;;14.87;58.28;102582.91;5057300;28;20056;-70
2023/05/17 08:00:41;;;;;;;17.75;2.47;;;;;;;14.89;55.76;102590.81;5089748;28;20044;-70
2023/05/17 08:03:27;;;;;;;16.00;2.75;;;;;;;14.88;54.19;102587.31;5089996;28;20133;-70
2023/05/17 08:06:17;;;;;;;15.55;2.35;;;;;;;14.93;55.78;102588.97;5073262;28;20433;-70
2023/05/17 08:09:03;;;;;;;10.50;2.25;;;;;;;15.05;56.53;102586.06;5088346;28;21050;-70
2023/05/17 08:11:48;;;;;;;26.20;4.53;;;;;;;15.27;55.80;102581.16;5072156;28;20057;-70
2023/05/17 08:14:34;;;;;;;16.10;2.80;;;;;;;15.46;55.47;102588.72;5086579;28;20036;-70
2023/05/17 08:17:21;;;;;;;9.95;2.30;;;;;;;15.60;52.69;102591.91;5083655;28;20048;-70
2023/05/17 08:20:07;;;;;;;18.00;2.55;;;;;;;15.63;53.12;102589.19;5086084;28;20436;-70
2023/05/17 08:22:53;;;;;;;9.90;2.50;;;;;;;15.60;52.60;102585.75;5086755;28;20149;-72
2023/05/17 08:25:38;;;;;;;18.30;2.45;;;;;;;15.67;52.46;102590.00;5074074;28;20052;-71
2023/05/17 08:28:24;;;;;;;12.07;2.38;;;;;;;15.62;53.41;102583.88;5059973;28;20052;-71
2023/05/17 08:31:10;;;;;;;10.90;2.13;;;;;;;15.59;50.50;102584.84;5088810;28;20060;-71
2023/05/17 08:33:55;;;;;;;9.68;1.77;;;;;;;15.38;50.75;102591.53;5087183;28;20100;-71
2023/05/17 08:36:41;;;;;;;8.20;1.70;;;;;;;15.35;48.23;102591.59;5076130;28;20055;-70
2023/05/17 08:39:26;;;;;;;6.60;1.63;;;;;;;15.24;48.29;102583.00;5069282;28;20041;-71
2023/05/17 08:42:15;;;;;;;9.38;1.73;;;;;;;15.14;50.52;102588.50;5086903;28;20638;-70
2023/05/17 08:45:00;;;;;;;11.80;1.90;;;;;;;15.26;50.12;102584.72;5084849;28;20099;-71
2023/05/17 08:47:46;;;;;;;9.25;1.70;;;;;;;15.46;49.64;102589.59;5088175;28;20059;-71
2023/05/17 08:50:34;;;;;;;5.05;1.35;;;;;;;15.63;47.62;102591.84;5086976;28;20041;-70
2023/05/17 08:53:20;;;;;;;10.70;1.83;;;;;;;15.55;47.63;102588.50;5086313;27;20079;-71
2023/05/17 08:56:07;;;;;;;7.13;1.33;;;;;;;15.66;46.50;102590.91;5068941;28;20508;-70
2023/05/17 08:58:57;;;;;;;8.20;1.70;;;;;;;15.72;45.53;102603.16;5067229;28;20041;-71
2023/05/17 09:01:44;;;;;;;10.90;1.40;;;;;;;15.82;47.63;102604.69;5085025;28;20122;-71
2023/05/17 09:04:30;;;;;;;12.90;1.42;;;;;;;16.09;47.22;102596.97;5085958;28;20966;-71
2023/05/17 09:07:16;;;;;;;7.38;1.13;;;;;;;16.21;45.30;102596.66;5086231;28;20045;-70
2023/05/17 09:10:04;;;;;;;8.55;1.70;;;;;;;15.87;46.01;102604.63;5084992;28;20048;-71
2023/05/17 09:12:52;;;;;;;10.82;1.42;;;;;;;15.78;45.30;102601.25;5083451;28;20052;-71
2023/05/17 09:15:42;;;;;;;6.15;1.27;;;;;;;15.58;44.49;102606.16;5086243;28;20572;-71
2023/05/17 09:18:31;;;;;;;3.78;1.10;;;;;;;15.62;44.24;102606.06;5072501;28;20131;-71
2023/05/17 09:21:17;;;;;;;5.97;1.42;;;;;;;15.76;44.63;102604.84;5086987;28;20044;-71
2023/05/17 09:24:03;;;;;;;13.52;1.80;;;;;;;15.98;45.60;102600.75;5100591;28;20052;-71
2023/05/17 09:26:52;;;;;;;5.10;1.55;;;;;;;16.46;42.52;102602.19;5092604;28;20146;-71
2023/05/17 09:29:38;;;;;;;6.05;1.60;;;;;;;16.40;42.62;102597.03;5060779;28;20041;-70
2023/05/17 09:32:24;;;;;;;4.93;0.95;;;;;;;16.15;42.86;102599.47;5077531;28;20044;-70
2023/05/17 09:35:09;;;;;;;11.52;1.95;;;;;;;16.04;44.01;102601.53;5088575;28;20048;-71
2023/05/17 09:38:11;;;;;;;9.60;1.60;;;;;;;16.09;45.02;102597.84;5088195;28;20669;-71
2023/05/17 09:40:57;;;;;;;11.05;2.08;;;;;;;16.28;45.39;102595.56;5072627;28;20044;-70
2023/05/17 09:43:42;;;;;;;9.00;1.45;;;;;;;16.34;44.89;102605.19;5086527;28;20536;-71
2023/05/17 09:46:33;;;;;;;6.25;1.30;;;;;;;16.13;44.89;102601.31;5088366;28;20044;-71
2023/05/17 09:49:19;;;;;;;6.15;1.55;;;;;;;15.96;42.79;102599.06;5076004;28;20044;-71
2023/05/17 09:52:07;;;;;;;17.23;1.63;;;;;;;16.09;43.44;102594.28;5087708;28;20052;-71
2023/05/17 09:54:54;;;;;;;8.25;1.83;;;;;;;16.45;45.36;102594.25;5085393;28;20049;-71
2023/05/17 09:57:40;;;;;;;14.82;1.60;;;;;;;16.56;43.71;102596.59;5086416;28;20040;-71
2023/05/17 10:00:26;;;;;;;9.13;1.30;;;;;;;16.28;43.32;102592.91;5071545;28;20044;-71
2023/05/17 10:03:12;;;;;;;6.90;1.63;;;;;;;16.06;44.54;102587.28;5070656;28;20193;-71
2023/05/17 10:06:04;;;;;;;13.77;1.90;;;;;;;15.97;44.56;102595.50;5081191;28;20045;-70
2023/05/17 10:08:54;;;;;;;14.98;1.58;;;;;;;16.09;43.60;102592.53;5090185;28;20044;-71
2023/05/17 10:11:45;;;;;;;5.85;1.20;;;;;;;15.78;42.17;102601.25;5066555;28;20053;-71
2023/05/17 10:14:34;;;;;;;23.20;2.63;;;;;;;15.31;43.25;102598.78;5078298;28;20086;-71
2023/05/17 10:17:20;;;;;;;6.40;1.67;;;;;;;15.42;43.12;102600.31;5075287;28;20056;-71
2023/05/17 10:20:08;;;;;;;5.63;1.27;;;;;;;15.61;41.43;102601.63;5072996;28;20055;-70
2023/05/17 10:22:57;;;;;;;19.50;2.33;;;;;;;15.83;42.61;102595.81;5071475;28;20972;-71
2023/05/17 10:25:45;;;;;;;21.58;2.55;;;;;;;16.27;43.04;102596.50;5086883;28;20127;-70
2023/05/17 10:28:32;;;;;;;6.85;1.10;;;;;;;16.14;41.41;102595.94;5072326;28;20054;-71
2023/05/17 10:31:19;;;;;;;16.00;2.00;;;;;;;15.80;41.42;102604.75;5087228;28;20049;-71
2023/05/17 10:34:07;;;;;;;5.90;1.20;;;;;;;15.78;41.63;102603.91;5084982;28;20714;-71
2023/05/17 10:36:54;;;;;;;7.53;1.10;;;;;;;16.17;41.98;102594.09;5085315;28;20275;-71
2023/05/17 10:39:42;;;;;;;5.07;1.60;;;;;;;16.45;40.82;102588.94;5067081;28;20037;-71
2023/05/17 10:42:30;;;;;;;7.80;1.63;;;;;;;16.55;40.63;102592.19;5071662;28;20045;-71
2023/05/17 10:45:21;;;;;;;5.68;1.15;;;;;;;16.57;40.78;102593.94;5070506;28;20112;-71
2023/05/17 10:48:07;;;;;;;9.30;1.08;;;;;;;16.66;40.82;102598.09;5082727;28;20049;-71
2023/05/17 10:50:52;;;;;;;11.75;1.60;;;;;;;16.92;41.88;102591.16;5090688;28;20048;-71
2023/05/17 10:54:04;;;;;;;5.32;1.25;;;;;;;17.13;40.60;102583.50;5091573;28;20117;-71
2023/05/17 10:56:52;;;;;;;6.73;1.33;;;;;;;17.09;39.22;102582.72;5086570;28;20052;-71
2023/05/17 10:59:58;;;;;;;5.45;1.20;;;;;;;17.11;37.90;102578.19;5085252;28;20053;-71
2023/05/17 11:02:44;;;;;;;4.85;1.27;;;;;;;17.08;38.16;102576.50;5086539;28;20053;-70
2023/05/17 11:05:30;;;;;;;5.78;1.15;;;;;;;16.66;37.70;102576.78;5071741;28;20044;-70
2023/05/17 11:08:17;;;;;;;4.13;0.93;;;;;;;16.68;37.13;102571.44;5071458;28;20622;-69
2023/05/17 11:11:16;;;;;;;7.25;1.38;;;;;;;16.65;38.54;102559.06;5077564;28;20060;-70
2023/05/17 11:14:04;;;;;;;8.88;1.40;;;;;;;16.78;38.88;102570.28;5064223;28;20052;-70
2023/05/17 11:16:55;;;;;;;3.90;0.80;;;;;;;16.58;39.06;102571.69;5087832;28;20087;-70
2023/05/17 11:20:06;;;;;;;5.97;1.20;;;;;;;16.67;37.82;102556.38;5073185;28;20080;-71
2023/05/17 11:23:03;;;;;;;3.45;0.90;;;;;;;16.72;36.84;102552.69;5089565;28;20820;-70
2023/05/17 11:25:49;;;;;;;15.70;1.80;;;;;;;16.70;38.66;102559.81;5086968;28;20040;-71
2023/05/17 11:28:37;;;;;;;9.82;1.10;;;;;;;16.70;37.34;102570.47;5075812;28;20044;-71
2023/05/17 11:31:32;;;;;;;7.47;1.20;;;;;;;16.61;38.69;102560.97;5088461;28;20044;-71
2023/05/17 11:34:18;;;;;;;6.68;1.00;;;;;;;17.00;39.33;102565.19;5087910;28;20049;-71
2023/05/17 11:37:09;;;;;;;12.80;1.85;;;;;;;17.39;37.83;102566.69;5089102;28;20496;-71
2023/05/17 11:40:07;;;;;;;20.90;1.92;;;;;;;17.69;37.32;102564.81;5088297;28;20496;-71
2023/05/17 11:43:34;;;;;;;4.82;1.02;;;;;;;17.69;36.09;102558.63;5091292;28;20041;-71
2023/05/17 11:46:23;;;;;;;3.30;0.90;;;;;;;17.80;35.03;102569.81;5027981;28;20049;-70
2023/05/17 11:49:09;;;;;;;5.03;1.30;;;;;;;17.78;35.79;102568.09;5087754;28;20080;-71
2023/05/17 11:51:59;;;;;;;4.50;1.08;;;;;;;17.99;36.16;102555.88;5074176;28;20226;-71
2023/05/17 11:54:46;;;;;;;9.60;1.17;;;;;;;18.19;36.87;102557.81;5087112;28;20501;-71
2023/05/17 11:57:32;;;;;;;5.50;0.82;;;;;;;18.42;35.56;102562.34;5086534;28;20917;-70
2023/05/17 12:00:27;;;;;;;8.10;1.15;;;;;;;18.26;35.76;102564.69;5084415;28;20049;-71
2023/05/17 12:03:24;;;;;;;4.18;1.15;;;;;;;18.24;34.63;102550.53;5084567;28;20107;-71
2023/05/17 12:06:13;;;;;;;15.65;1.70;;;;;;;18.03;36.08;102561.97;5087543;28;20060;-71
2023/05/17 12:08:59;;;;;;;3.42;0.65;;;;;;;17.96;34.96;102563.94;5082721;28;20084;-71
2023/05/17 12:11:45;;;;;;;8.18;1.70;;;;;;;18.00;35.55;102557.63;5078118;28;20597;-71
2023/05/17 12:14:30;;;;;;;13.55;1.63;;;;;;;18.26;35.22;102553.16;5069751;28;20201;-71
2023/05/17 12:17:36;;;;;;;3.92;1.40;;;;;;;18.49;34.07;102560.31;5068492;28;20059;-71
2023/05/17 12:20:21;;;;;;;6.82;1.50;;;;;;;17.99;34.90;102561.19;5085071;28;20103;-71
2023/05/17 12:23:07;;;;;;;5.90;1.33;;;;;;;17.59;36.08;102558.03;5087353;28;20564;-71
2023/05/17 12:26:10;;;;;;;6.15;1.13;;;;;;;17.75;36.00;102563.72;5083448;28;20556;-71
2023/05/17 12:28:59;;;;;;;5.82;1.10;;;;;;;17.91;35.48;102564.09;5067912;28;20131;-71
2023/05/17 12:31:49;;;;;;;6.05;1.50;;;;;;;17.85;36.76;102553.66;5071784;28;20507;-71
2023/05/17 12:34:35;;;;;;;6.80;1.27;;;;;;;17.96;36.09;102551.47;5087434;28;20174;-71
2023/05/17 12:37:21;;;;;;;7.65;1.30;;;;;;;18.15;35.55;102550.88;5086894;28;20059;-71
2023/05/17 12:40:08;;;;;;;37.42;2.85;;;;;;;18.25;35.88;102544.28;5085933;28;20560;-71
2023/05/17 12:43:02;;;;;;;13.98;2.08;;;;;;;18.59;36.28;102544.84;5078694;28;20048;-71
2023/05/17 12:45:48;;;;;;;5.20;1.15;;;;;;;18.93;34.22;102557.81;5085932;28;20037;-70
2023/05/17 12:48:36;;;;;;;6.35;1.48;;;;;;;18.80;35.43;102540.47;5071908;28;20041;-71
2023/05/17 12:51:22;;;;;;;3.78;1.08;;;;;;;18.79;34.94;102546.75;5087482;27;20048;-71
2023/05/17 12:54:08;;;;;;;4.80;1.40;;;;;;;18.56;34.42;102550.28;5072235;28;20453;-71
2023/05/17 12:56:54;;;;;;;6.03;1.35;;;;;;;18.28;35.08;102537.94;5086292;28;20595;-71